Time;durP1;ratioP1;P1;durP2;ratioP2;P2;SDS_P1;SDS_P2;PMS_P1;PMS_P2;Temp;Humidity;BMP_temperature;BMP_pressure;BME280_temperature;BME280_humidity;BME280_pressure;Samples;Min_cycle;Max_cycle;Signal;HPM_P1;HPM_P2
2024/03/02 00:02:15;;;;;;;65.32;30.85;;;;;;;;;;4915723;29;20106;-78
2024/03/02 00:04:43;;;;;;;57.88;31.08;;;;;;;;;;4916602;29;20056;-78
2024/03/02 00:07:09;;;;;;;65.70;31.85;;;;;;;;;;4870083;29;20103;-78
2024/03/02 00:09:36;;;;;;;60.63;30.88;;;;;;;;;;4886069;29;20028;-78
2024/03/02 00:12:02;;;;;;;62.25;31.77;;;;;;;;;;4870644;29;20104;-78
2024/03/02 00:14:30;;;;;;;62.15;30.52;;;;;;;;;;4917115;29;20064;-77
2024/03/02 00:17:05;;;;;;;62.45;31.73;;;;;;;;;;4917760;29;20074;-77
2024/03/02 00:19:31;;;;;;;62.97;31.92;;;;;;;;;;4917443;29;20079;-77
2024/03/02 00:22:00;;;;;;;71.28;30.45;;;;;;;;;;4917744;29;20464;-77
2024/03/02 00:24:26;;;;;;;66.03;31.23;;;;;;;;;;4884413;29;20060;-78
2024/03/02 00:26:52;;;;;;;63.30;31.25;;;;;;;;;;4917233;29;20088;-77
2024/03/02 00:29:19;;;;;;;58.58;28.05;;;;;;;;;;4917475;29;20091;-78
2024/03/02 00:31:46;;;;;;;70.03;31.27;;;;;;;;;;4917753;29;20096;-77
2024/03/02 00:34:12;;;;;;;66.55;32.50;;;;;;;;;;4900245;29;20068;-77
2024/03/02 00:36:38;;;;;;;68.13;33.15;;;;;;;;;;4900864;29;20430;-77
2024/03/02 00:39:07;;;;;;;62.67;31.67;;;;;;;;;;4900080;29;20035;-77
2024/03/02 00:41:33;;;;;;;70.95;35.53;;;;;;;;;;4899757;29;20044;-76
2024/03/02 00:44:06;;;;;;;62.55;30.13;;;;;;;;;;4916199;29;20461;-76
2024/03/02 00:46:35;;;;;;;66.80;32.45;;;;;;;;;;4868982;29;20139;-76
2024/03/02 00:49:05;;;;;;;59.70;31.02;;;;;;;;;;4900004;29;20651;-76
2024/03/02 00:51:31;;;;;;;74.70;33.83;;;;;;;;;;4883755;29;20039;-76
2024/03/02 00:54:01;;;;;;;71.18;34.45;;;;;;;;;;4898482;29;20051;-76
2024/03/02 00:56:27;;;;;;;64.10;33.10;;;;;;;;;;4915903;29;20040;-76
2024/03/02 00:58:52;;;;;;;64.20;32.50;;;;;;;;;;4899047;29;20043;-76
2024/03/02 01:01:19;;;;;;;58.15;32.13;;;;;;;;;;4898840;29;20060;-76
2024/03/02 01:03:45;;;;;;;60.80;32.75;;;;;;;;;;4915365;29;20127;-77
2024/03/02 01:06:12;;;;;;;68.10;30.77;;;;;;;;;;4883848;29;20140;-77
2024/03/02 01:08:39;;;;;;;67.57;32.40;;;;;;;;;;4916121;29;20424;-77
2024/03/02 01:11:05;;;;;;;60.42;31.88;;;;;;;;;;4916264;29;20130;-77
2024/03/02 01:13:31;;;;;;;62.75;30.75;;;;;;;;;;4897436;29;20087;-77
2024/03/02 01:15:58;;;;;;;65.00;32.35;;;;;;;;;;4916559;29;20080;-77
2024/03/02 01:18:24;;;;;;;63.00;31.27;;;;;;;;;;4916159;29;20048;-76
2024/03/02 01:20:51;;;;;;;62.30;32.85;;;;;;;;;;4899781;29;20047;-78
2024/03/02 01:23:20;;;;;;;60.03;29.50;;;;;;;;;;4916523;29;20071;-79
2024/03/02 01:25:49;;;;;;;69.72;33.70;;;;;;;;;;4900903;29;20040;-78
2024/03/02 01:28:15;;;;;;;65.80;31.50;;;;;;;;;;4899955;29;20041;-78
2024/03/02 01:30:41;;;;;;;68.35;34.08;;;;;;;;;;4916527;29;20449;-78
2024/03/02 01:33:07;;;;;;;82.40;37.65;;;;;;;;;;4914958;29;20468;-77
2024/03/02 01:35:34;;;;;;;70.93;35.80;;;;;;;;;;4898673;29;20031;-76
2024/03/02 01:38:01;;;;;;;74.07;35.55;;;;;;;;;;4915903;29;20054;-77
2024/03/02 01:40:27;;;;;;;74.22;36.40;;;;;;;;;;4868995;29;20028;-77
2024/03/02 01:42:54;;;;;;;72.95;35.65;;;;;;;;;;4884078;29;20047;-78
2024/03/02 01:45:22;;;;;;;58.70;31.67;;;;;;;;;;4899050;29;20512;-77
2024/03/02 01:47:48;;;;;;;64.97;35.00;;;;;;;;;;4898682;29;20551;-77
2024/03/02 01:50:14;;;;;;;69.90;34.50;;;;;;;;;;4883156;29;20040;-76
2024/03/02 01:52:40;;;;;;;67.78;34.47;;;;;;;;;;4916094;29;20195;-77
2024/03/02 01:55:07;;;;;;;72.70;36.70;;;;;;;;;;4898524;29;20516;-77
2024/03/02 01:57:33;;;;;;;68.88;37.03;;;;;;;;;;4899376;29;20042;-77
2024/03/02 01:59:59;;;;;;;73.75;34.45;;;;;;;;;;4884411;29;20040;-78
2024/03/02 02:02:25;;;;;;;66.50;33.40;;;;;;;;;;4916554;29;20058;-78
2024/03/02 02:04:51;;;;;;;68.07;31.08;;;;;;;;;;4914909;29;20060;-77
2024/03/02 02:07:16;;;;;;;69.57;31.13;;;;;;;;;;4898900;29;20044;-78
2024/03/02 02:09:43;;;;;;;60.17;32.72;;;;;;;;;;4915801;29;20036;-78
2024/03/02 02:12:11;;;;;;;72.13;34.70;;;;;;;;;;4898941;29;20047;-78
2024/03/02 02:14:39;;;;;;;74.40;36.00;;;;;;;;;;4922186;29;20060;-77
2024/03/02 02:17:05;;;;;;;69.40;35.38;;;;;;;;;;4926866;29;20057;-77
2024/03/02 02:19:31;;;;;;;78.70;39.35;;;;;;;;;;4926479;29;20575;-78
2024/03/02 02:21:57;;;;;;;87.70;41.50;;;;;;;;;;4891446;29;20051;-78
2024/03/02 02:24:24;;;;;;;86.13;39.42;;;;;;;;;;4898913;29;20405;-77
2024/03/02 02:26:52;;;;;;;66.50;33.20;;;;;;;;;;4917365;29;20060;-78
2024/03/02 02:29:18;;;;;;;72.40;35.53;;;;;;;;;;4919292;29;20071;-81
2024/03/02 02:31:44;;;;;;;60.88;34.50;;;;;;;;;;4901736;29;20139;-79
2024/03/02 02:34:10;;;;;;;75.78;37.03;;;;;;;;;;4917651;29;20095;-78
2024/03/02 02:36:37;;;;;;;64.78;34.60;;;;;;;;;;4899737;29;20536;-78
2024/03/02 02:39:03;;;;;;;68.60;33.10;;;;;;;;;;4867682;29;20055;-74
2024/03/02 02:41:29;;;;;;;85.20;36.95;;;;;;;;;;4931204;29;20503;-74
2024/03/02 02:43:55;;;;;;;82.68;37.65;;;;;;;;;;4938352;29;20504;-76
2024/03/02 02:46:21;;;;;;;76.43;36.17;;;;;;;;;;4922420;29;20071;-75
2024/03/02 02:48:47;;;;;;;76.75;35.85;;;;;;;;;;4916985;29;20547;-75
2024/03/02 02:51:13;;;;;;;68.70;35.30;;;;;;;;;;4933356;29;20532;-75
2024/03/02 02:53:41;;;;;;;83.95;40.67;;;;;;;;;;4932353;29;20048;-75
2024/03/02 02:56:07;;;;;;;80.25;40.30;;;;;;;;;;4916434;29;20027;-76
2024/03/02 02:58:33;;;;;;;73.72;37.35;;;;;;;;;;4933183;29;20063;-76
2024/03/02 03:00:59;;;;;;;78.80;39.65;;;;;;;;;;4916266;29;20545;-75
2024/03/02 03:03:25;;;;;;;76.93;38.78;;;;;;;;;;4932599;29;20059;-75
2024/03/02 03:05:51;;;;;;;79.57;37.30;;;;;;;;;;4917076;29;20069;-77
2024/03/02 03:08:17;;;;;;;80.63;40.65;;;;;;;;;;4934162;29;20543;-77
2024/03/02 03:10:43;;;;;;;74.68;38.22;;;;;;;;;;4933796;29;20050;-77
2024/03/02 03:13:09;;;;;;;80.30;39.15;;;;;;;;;;4934181;29;20038;-77
2024/03/02 03:15:38;;;;;;;80.90;40.25;;;;;;;;;;4918368;29;20040;-77
2024/03/02 03:18:04;;;;;;;75.53;37.35;;;;;;;;;;4934779;29;20031;-78
2024/03/02 03:20:30;;;;;;;80.50;39.70;;;;;;;;;;4935634;29;20040;-77
2024/03/02 03:22:56;;;;;;;87.15;38.72;;;;;;;;;;4935432;29;20042;-76
2024/03/02 03:25:22;;;;;;;81.18;39.58;;;;;;;;;;4935233;29;20051;-77
2024/03/02 03:27:50;;;;;;;78.90;39.30;;;;;;;;;;4936017;29;20032;-77
2024/03/02 03:30:16;;;;;;;83.55;39.70;;;;;;;;;;4936115;29;20043;-77
2024/03/02 03:32:42;;;;;;;81.63;38.97;;;;;;;;;;4935884;29;20043;-77
2024/03/02 03:35:08;;;;;;;79.47;38.13;;;;;;;;;;4917833;29;20040;-78
2024/03/02 03:37:34;;;;;;;73.50;37.80;;;;;;;;;;4888044;29;20039;-77
2024/03/02 03:40:01;;;;;;;82.55;41.05;;;;;;;;;;4913187;29;20036;-77
2024/03/02 03:42:29;;;;;;;87.47;40.90;;;;;;;;;;4909798;29;20036;-76
2024/03/02 03:44:55;;;;;;;77.45;39.85;;;;;;;;;;4920358;29;20058;-77
2024/03/02 03:47:21;;;;;;;79.90;39.05;;;;;;;;;;4919936;29;20044;-77
2024/03/02 03:49:47;;;;;;;81.05;37.88;;;;;;;;;;4918694;29;20060;-77
2024/03/02 03:52:13;;;;;;;81.20;38.65;;;;;;;;;;4900894;29;20091;-78
2024/03/02 03:54:39;;;;;;;84.40;39.28;;;;;;;;;;4917040;29;20076;-77
2024/03/02 03:57:05;;;;;;;87.53;41.63;;;;;;;;;;4900698;29;20500;-77
2024/03/02 03:59:30;;;;;;;92.22;40.88;;;;;;;;;;4917502;29;20147;-75
2024/03/02 04:01:56;;;;;;;87.90;41.42;;;;;;;;;;4915651;29;20048;-76
2024/03/02 04:04:22;;;;;;;78.38;39.92;;;;;;;;;;4927859;29;20428;-76
2024/03/02 04:06:48;;;;;;;87.20;40.13;;;;;;;;;;4935659;29;20043;-78
2024/03/02 04:09:14;;;;;;;77.30;37.63;;;;;;;;;;4914239;29;20040;-78
2024/03/02 04:11:40;;;;;;;78.70;38.53;;;;;;;;;;4936027;29;20574;-78
2024/03/02 04:14:06;;;;;;;81.97;40.75;;;;;;;;;;4935283;29;20058;-78
2024/03/02 04:16:33;;;;;;;83.60;39.42;;;;;;;;;;4935080;29;20110;-77
2024/03/02 04:18:59;;;;;;;82.95;40.03;;;;;;;;;;4936865;29;20492;-78
2024/03/02 04:21:25;;;;;;;85.30;41.25;;;;;;;;;;4933312;29;20059;-78
2024/03/02 04:23:51;;;;;;;85.70;38.42;;;;;;;;;;4913874;29;20128;-75
2024/03/02 04:26:21;;;;;;;80.60;39.85;;;;;;;;;;4914171;29;20284;-75
2024/03/02 04:28:48;;;;;;;91.13;41.63;;;;;;;;;;4914377;29;20599;-75
2024/03/02 04:31:15;;;;;;;91.82;44.65;;;;;;;;;;4914352;29;20044;-75
2024/03/02 04:33:40;;;;;;;78.30;39.47;;;;;;;;;;4912014;29;20349;-75
2024/03/02 04:36:09;;;;;;;88.90;43.85;;;;;;;;;;4897108;29;20028;-74
2024/03/02 04:38:35;;;;;;;86.50;39.03;;;;;;;;;;4914171;29;20504;-75
2024/03/02 04:41:01;;;;;;;77.70;38.22;;;;;;;;;;4897665;29;20111;-76
2024/03/02 04:43:27;;;;;;;81.80;37.78;;;;;;;;;;4914248;29;20485;-75
2024/03/02 04:45:53;;;;;;;91.00;40.63;;;;;;;;;;4914522;29;20521;-75
2024/03/02 04:48:19;;;;;;;91.78;40.47;;;;;;;;;;4916010;29;20051;-74
2024/03/02 04:50:45;;;;;;;85.97;42.83;;;;;;;;;;4915920;29;20531;-74
2024/03/02 04:53:11;;;;;;;93.70;43.80;;;;;;;;;;4931936;29;20044;-75
2024/03/02 04:58:06;;;;;;;101.18;45.92;;;;;;;;;;4935279;29;20463;-75
2024/03/02 05:00:32;;;;;;;88.28;42.05;;;;;;;;;;4935270;29;20621;-74
2024/03/02 05:02:58;;;;;;;77.72;40.30;;;;;;;;;;4933515;29;20515;-74
2024/03/02 05:05:24;;;;;;;90.25;38.85;;;;;;;;;;4934859;29;20052;-74
2024/03/02 05:07:50;;;;;;;72.82;38.55;;;;;;;;;;4901907;29;20040;-73
2024/03/02 05:10:16;;;;;;;75.20;36.20;;;;;;;;;;4917903;29;20040;-75
2024/03/02 05:15:12;;;;;;;81.93;39.50;;;;;;;;;;4934217;29;20047;-74
2024/03/02 05:17:44;;;;;;;92.20;43.80;;;;;;;;;;4934861;29;20051;-74
2024/03/02 05:20:10;;;;;;;80.07;40.38;;;;;;;;;;4918220;29;20039;-75
2024/03/02 05:22:36;;;;;;;80.53;39.88;;;;;;;;;;4917581;29;20511;-75
2024/03/02 05:25:06;;;;;;;85.30;40.00;;;;;;;;;;4916789;29;20494;-74
2024/03/02 05:27:32;;;;;;;83.50;39.78;;;;;;;;;;4932171;29;20130;-74
2024/03/02 05:44:36;;;;;;;87.88;46.22;;;;;;;;;;6282837;21;884404;-85
2024/03/02 05:47:03;;;;;;;86.10;44.15;;;;;;;;;;6305590;22;20012;-85
2024/03/02 05:49:29;;;;;;;86.70;43.00;;;;;;;;;;6304077;22;20016;-87
2024/03/02 05:51:55;;;;;;;81.32;40.55;;;;;;;;;;6254455;22;20063;-87
2024/03/02 06:03:07;;;;;;;86.25;36.97;;;;;;;;;;6181368;23;20456;-82
2024/03/02 06:05:33;;;;;;;85.93;41.10;;;;;;;;;;6191808;23;20036;-81
2024/03/02 06:07:59;;;;;;;72.47;37.22;;;;;;;;;;6193158;23;20104;-82
2024/03/02 06:10:25;;;;;;;66.10;34.20;;;;;;;;;;6191597;23;20449;-80
2024/03/02 06:12:51;;;;;;;78.75;37.80;;;;;;;;;;6219726;23;20423;-81
2024/03/02 06:15:17;;;;;;;73.32;37.85;;;;;;;;;;6196275;23;20028;-81
2024/03/02 06:17:46;;;;;;;85.75;38.25;;;;;;;;;;6230334;23;20008;-83
2024/03/02 06:22:56;;;;;;;73.03;37.55;;;;;;;;;;6205220;23;20099;-83
2024/03/02 06:25:22;;;;;;;67.38;32.97;;;;;;;;;;6204772;23;20020;-82
2024/03/02 06:27:49;;;;;;;98.18;49.03;;;;;;;;;;6228606;23;20088;-81
2024/03/02 06:30:15;;;;;;;79.53;38.33;;;;;;;;;;6228278;23;20013;-79
2024/03/02 06:32:41;;;;;;;71.07;38.17;;;;;;;;;;6218066;23;20004;-83
2024/03/02 06:38:15;;;;;;;72.25;37.15;;;;;;;;;;6273415;22;20026;-86
2024/03/02 06:40:42;;;;;;;75.88;36.05;;;;;;;;;;6273428;22;20096;-84
2024/03/02 06:43:09;;;;;;;78.38;42.08;;;;;;;;;;6205403;22;20011;-86
2024/03/02 06:45:35;;;;;;;71.05;35.45;;;;;;;;;;6246758;22;20034;-85
2024/03/02 06:50:55;;;;;;;64.93;33.10;;;;;;;;;;6214074;23;20016;-85
2024/03/02 06:53:22;;;;;;;65.85;32.85;;;;;;;;;;6212434;22;20017;-82
2024/03/02 06:55:48;;;;;;;67.30;31.45;;;;;;;;;;6274149;22;20008;-84
2024/03/02 06:58:17;;;;;;;76.20;36.47;;;;;;;;;;6191424;22;20018;-80
2024/03/02 07:00:45;;;;;;;61.22;34.33;;;;;;;;;;6261555;22;20034;-85
2024/03/02 07:03:12;;;;;;;68.97;35.55;;;;;;;;;;6278277;22;20007;-82
2024/03/02 07:05:38;;;;;;;64.18;32.90;;;;;;;;;;6233825;22;20113;-84
2024/03/02 07:08:05;;;;;;;63.88;31.67;;;;;;;;;;6304573;22;20014;-86
2024/03/02 07:10:31;;;;;;;62.35;33.80;;;;;;;;;;6232061;22;20011;-84
2024/03/02 07:12:57;;;;;;;65.95;34.63;;;;;;;;;;6263622;22;20083;-85
2024/03/02 07:20:44;;;;;;;29.95;19.00;;;;;;;;;;6302996;22;19899;-87
2024/03/02 07:23:10;;;;;;;46.40;24.38;;;;;;;;;;6288779;22;20004;-78
2024/03/02 07:25:36;;;;;;;52.50;28.70;;;;;;;;;;6278362;22;20008;-85
2024/03/02 07:28:02;;;;;;;32.15;19.30;;;;;;;;;;6245569;22;20013;-82
2024/03/02 07:30:28;;;;;;;59.05;29.30;;;;;;;;;;6260192;22;20043;-85
2024/03/02 07:32:57;;;;;;;58.83;28.75;;;;;;;;;;6274175;22;19996;-85
2024/03/02 07:38:12;;;;;;;56.65;27.92;;;;;;;;;;6287976;22;20028;-84
2024/03/02 07:40:38;;;;;;;55.25;29.48;;;;;;;;;;6298423;22;20008;-84
2024/03/02 07:43:04;;;;;;;58.22;27.10;;;;;;;;;;6280818;22;20023;-85
2024/03/02 07:45:30;;;;;;;56.13;28.10;;;;;;;;;;6332919;22;20019;-85
2024/03/02 07:47:56;;;;;;;54.30;27.27;;;;;;;;;;6334419;22;20003;-86
2024/03/02 07:50:25;;;;;;;49.50;25.55;;;;;;;;;;6307833;22;20025;-85
2024/03/02 07:52:51;;;;;;;43.50;20.92;;;;;;;;;;6333832;22;20022;-85
2024/03/02 07:55:17;;;;;;;54.75;25.75;;;;;;;;;;6333712;22;19995;-85
2024/03/02 07:57:44;;;;;;;50.72;24.38;;;;;;;;;;6333669;22;19991;-85
2024/03/02 08:02:58;;;;;;;51.42;24.75;;;;;;;;;;6264771;22;20011;-86
2024/03/02 08:05:27;;;;;;;44.22;25.38;;;;;;;;;;6218169;22;20010;-89
2024/03/02 08:10:49;;;;;;;38.78;19.90;;;;;;;;;;6195936;22;20020;-83
2024/03/02 08:13:15;;;;;;;48.67;23.25;;;;;;;;;;6210229;22;20040;-83
2024/03/02 08:15:41;;;;;;;49.47;22.50;;;;;;;;;;6271595;22;20035;-84
2024/03/02 08:23:36;;;;;;;60.35;29.60;;;;;;;;;;6238644;22;20080;-84
2024/03/02 08:28:50;;;;;;;53.78;27.98;;;;;;;;;;6260008;22;20028;-86
2024/03/02 08:39:53;;;;;;;58.85;31.75;;;;;;;;;;6214382;22;20024;-84
2024/03/02 08:42:19;;;;;;;50.38;27.92;;;;;;;;;;6213694;23;20032;-82
2024/03/02 08:44:45;;;;;;;55.33;27.42;;;;;;;;;;6204328;23;20099;-82
2024/03/02 08:47:11;;;;;;;67.30;33.25;;;;;;;;;;6228772;23;20012;-81
2024/03/02 08:49:39;;;;;;;78.63;37.67;;;;;;;;;;6196406;23;20016;-82
2024/03/02 08:52:05;;;;;;;62.90;32.85;;;;;;;;;;6234940;23;20012;-85
2024/03/02 08:54:33;;;;;;;67.50;38.28;;;;;;;;;;6225746;23;19996;-83
2024/03/02 08:56:59;;;;;;;72.45;38.08;;;;;;;;;;6191423;23;20016;-82
2024/03/02 08:59:27;;;;;;;60.20;34.70;;;;;;;;;;6218293;23;20321;-84
2024/03/02 09:01:54;;;;;;;69.72;35.58;;;;;;;;;;6241935;22;20023;-83
2024/03/02 09:04:20;;;;;;;65.57;36.03;;;;;;;;;;6243946;22;20259;-83
2024/03/02 09:06:46;;;;;;;65.88;36.10;;;;;;;;;;6332532;22;20071;-84
2024/03/02 09:09:11;;;;;;;64.03;33.40;;;;;;;;;;6326976;22;20015;-83
2024/03/02 09:20:18;;;;;;;65.43;34.17;;;;;;;;;;6247591;22;20008;-86
2024/03/02 09:22:47;;;;;;;56.03;31.90;;;;;;;;;;6240394;23;20020;-83
2024/03/02 09:25:16;;;;;;;55.00;29.95;;;;;;;;;;6239636;23;20020;-83
2024/03/02 09:27:41;;;;;;;62.75;31.95;;;;;;;;;;6240733;23;20008;-83
2024/03/02 09:30:08;;;;;;;52.80;29.38;;;;;;;;;;6235383;23;20012;-83
2024/03/02 09:32:34;;;;;;;60.28;33.08;;;;;;;;;;6242673;22;20043;-86
2024/03/02 09:35:00;;;;;;;55.22;29.65;;;;;;;;;;6242956;23;20020;-84
2024/03/02 09:37:26;;;;;;;60.15;31.83;;;;;;;;;;6193630;23;19999;-80
2024/03/02 09:39:52;;;;;;;60.22;33.38;;;;;;;;;;6237232;23;20376;-80
2024/03/02 09:42:18;;;;;;;57.90;32.50;;;;;;;;;;6246766;23;20103;-80
2024/03/02 10:24:53;;;;;;;37.33;21.55;;;;;;;;;;6273501;22;20020;-80
2024/03/02 10:27:26;;;;;;;28.77;17.63;;;;;;;;;;6251477;22;20037;-85
2024/03/02 10:35:45;;;;;;;41.40;24.92;;;;;;;;;;6233776;22;19899;-85
2024/03/02 10:41:06;;;;;;;44.95;22.40;;;;;;;;;;6263272;22;20004;-87
2024/03/02 10:46:21;;;;;;;45.30;20.88;;;;;;;;;;6256287;22;20027;-82
2024/03/02 10:54:46;;;;;;;45.90;25.08;;;;;;;;;;6312154;22;20003;-85
2024/03/02 10:57:13;;;;;;;45.70;22.77;;;;;;;;;;6291535;22;20007;-84
2024/03/02 10:59:49;;;;;;;52.25;27.30;;;;;;;;;;6335010;22;19995;-84
2024/03/02 11:02:16;;;;;;;30.88;17.10;;;;;;;;;;6293106;22;20003;-85
2024/03/02 11:04:45;;;;;;;32.08;15.50;;;;;;;;;;6263957;22;20028;-79
2024/03/02 11:07:11;;;;;;;13.48;9.65;;;;;;;;;;6241880;22;20034;-80
2024/03/02 11:10:10;;;;;;;21.52;12.10;;;;;;;;;;6272346;22;20012;-80
2024/03/02 11:12:37;;;;;;;17.73;11.80;;;;;;;;;;6177692;22;20018;-80
2024/03/02 11:15:03;;;;;;;27.02;14.48;;;;;;;;;;6257183;22;20094;-80
2024/03/02 11:17:29;;;;;;;13.05;11.32;;;;;;;;;;6273950;22;20413;-80
2024/03/02 11:19:55;;;;;;;19.52;14.55;;;;;;;;;;6302095;22;20007;-79
2024/03/02 11:22:21;;;;;;;24.98;9.07;;;;;;;;;;6301044;22;20023;-81
2024/03/02 11:24:48;;;;;;;21.77;13.23;;;;;;;;;;6281691;22;20149;-84
2024/03/02 11:27:16;;;;;;;19.00;13.10;;;;;;;;;;6301036;22;20474;-85
2024/03/02 11:29:42;;;;;;;28.10;17.30;;;;;;;;;;6330088;22;20011;-82
2024/03/02 11:32:16;;;;;;;19.40;12.13;;;;;;;;;;6278464;22;20026;-83
2024/03/02 11:34:52;;;;;;;35.78;15.90;;;;;;;;;;6330857;22;20337;-83
2024/03/02 11:37:22;;;;;;;29.38;17.08;;;;;;;;;;6280982;22;20011;-83
2024/03/02 11:39:51;;;;;;;27.85;16.15;;;;;;;;;;6304323;22;20015;-84
2024/03/02 11:42:18;;;;;;;24.35;12.88;;;;;;;;;;6297272;22;20079;-84
2024/03/02 11:44:47;;;;;;;21.25;14.82;;;;;;;;;;6269564;22;20022;-83
2024/03/02 11:47:17;;;;;;;23.80;12.73;;;;;;;;;;6297899;22;20070;-84
2024/03/02 11:49:48;;;;;;;18.83;13.23;;;;;;;;;;6322066;22;20035;-83
2024/03/02 11:52:15;;;;;;;17.95;11.82;;;;;;;;;;6287521;22;20143;-80
2024/03/02 11:54:48;;;;;;;17.40;11.13;;;;;;;;;;6301592;22;20016;-79
2024/03/02 11:57:15;;;;;;;12.30;9.75;;;;;;;;;;6276516;22;20181;-80
2024/03/02 11:59:41;;;;;;;23.80;13.95;;;;;;;;;;6308171;22;20007;-79
2024/03/02 12:02:12;;;;;;;24.42;14.05;;;;;;;;;;6277266;22;20094;-79
2024/03/02 12:04:38;;;;;;;26.95;16.15;;;;;;;;;;6271270;22;20455;-78
2024/03/02 12:07:04;;;;;;;28.55;17.30;;;;;;;;;;6310979;22;20471;-80
2024/03/02 12:09:30;;;;;;;21.85;15.45;;;;;;;;;;6282043;22;20010;-80
2024/03/02 12:12:06;;;;;;;31.40;14.38;;;;;;;;;;6288679;22;20038;-79
2024/03/02 12:14:32;;;;;;;22.77;14.18;;;;;;;;;;6309994;22;20339;-81
2024/03/02 12:17:01;;;;;;;27.20;16.25;;;;;;;;;;6313983;22;20011;-81
2024/03/02 12:19:27;;;;;;;32.08;19.20;;;;;;;;;;6312643;22;20052;-81
2024/03/02 12:21:53;;;;;;;21.75;14.38;;;;;;;;;;6279215;22;20346;-83
2024/03/02 12:24:19;;;;;;;36.85;19.52;;;;;;;;;;6261427;22;20583;-80
2024/03/02 12:26:44;;;;;;;29.50;15.75;;;;;;;;;;6313395;22;20056;-81
2024/03/02 12:29:10;;;;;;;24.85;14.85;;;;;;;;;;6283941;22;20014;-81
2024/03/02 12:31:36;;;;;;;35.83;19.30;;;;;;;;;;6267284;22;20007;-82
2024/03/02 12:34:03;;;;;;;31.63;17.58;;;;;;;;;;6319427;22;20019;-80
2024/03/02 12:36:29;;;;;;;25.65;18.17;;;;;;;;;;6320618;22;20014;-80
2024/03/02 12:38:54;;;;;;;39.95;20.50;;;;;;;;;;6316268;22;20015;-81
2024/03/02 12:41:21;;;;;;;23.80;15.55;;;;;;;;;;6320257;22;20011;-80
2024/03/02 12:43:46;;;;;;;20.77;14.07;;;;;;;;;;6269422;22;20027;-82
2024/03/02 12:46:12;;;;;;;23.27;13.88;;;;;;;;;;6311697;22;20070;-80
2024/03/02 12:48:42;;;;;;;35.10;18.38;;;;;;;;;;6318496;22;20007;-80
2024/03/02 12:51:07;;;;;;;37.05;21.15;;;;;;;;;;6312063;22;20007;-81
2024/03/02 12:53:33;;;;;;;28.67;17.23;;;;;;;;;;6261781;22;20030;-81
2024/03/02 12:55:59;;;;;;;28.25;18.17;;;;;;;;;;6259191;22;20018;-80
2024/03/02 12:58:26;;;;;;;13.27;9.80;;;;;;;;;;6288998;22;20011;-83
2024/03/02 13:01:11;;;;;;;28.75;17.02;;;;;;;;;;6272006;22;19991;-84
2024/03/02 13:03:40;;;;;;;26.90;11.93;;;;;;;;;;6236728;22;20015;-82
2024/03/02 13:06:06;;;;;;;15.32;11.77;;;;;;;;;;6289776;22;20030;-82
2024/03/02 13:08:33;;;;;;;21.10;10.18;;;;;;;;;;6325494;22;20011;-84
2024/03/02 13:10:59;;;;;;;32.72;20.15;;;;;;;;;;6321818;22;20056;-80
2024/03/02 13:13:24;;;;;;;27.38;16.33;;;;;;;;;;6285911;22;20015;-83
2024/03/02 13:16:10;;;;;;;31.92;19.38;;;;;;;;;;6256807;22;20534;-83
2024/03/02 13:18:40;;;;;;;36.67;19.60;;;;;;;;;;6297733;22;20007;-83
2024/03/02 13:21:06;;;;;;;35.20;19.33;;;;;;;;;;6282927;22;20018;-83
2024/03/02 13:23:32;;;;;;;37.65;22.63;;;;;;;;;;6297146;22;19996;-83
2024/03/02 13:25:58;;;;;;;31.02;19.45;;;;;;;;;;6276698;22;19996;-83
2024/03/02 13:28:24;;;;;;;34.78;19.13;;;;;;;;;;6304138;22;19987;-83
2024/03/02 13:30:50;;;;;;;34.95;18.40;;;;;;;;;;6274117;22;20002;-82
2024/03/02 13:33:22;;;;;;;27.02;18.25;;;;;;;;;;6314640;22;20071;-82
2024/03/02 13:35:49;;;;;;;32.15;18.65;;;;;;;;;;6295340;22;20072;-82
2024/03/02 13:38:16;;;;;;;29.90;19.15;;;;;;;;;;6319792;22;20010;-83
2024/03/02 13:40:42;;;;;;;39.42;17.08;;;;;;;;;;6301408;22;20030;-87
2024/03/02 13:43:08;;;;;;;38.13;19.95;;;;;;;;;;6280633;22;20023;-86
2024/03/02 13:45:37;;;;;;;26.85;15.70;;;;;;;;;;6279484;22;20006;-88
2024/03/02 13:48:03;;;;;;;19.48;12.30;;;;;;;;;;6330854;22;20022;-85
2024/03/02 13:50:30;;;;;;;37.28;14.43;;;;;;;;;;6254442;22;19999;-86
2024/03/02 13:52:56;;;;;;;16.50;12.25;;;;;;;;;;6329234;22;20018;-83
2024/03/02 13:55:22;;;;;;;20.60;13.63;;;;;;;;;;6313017;22;20007;-80
2024/03/02 13:57:51;;;;;;;26.80;13.20;;;;;;;;;;6303336;22;20015;-83
2024/03/02 14:00:17;;;;;;;35.63;16.00;;;;;;;;;;6299111;22;20043;-83
2024/03/02 14:02:43;;;;;;;26.20;15.48;;;;;;;;;;6301516;22;20038;-83
2024/03/02 14:05:11;;;;;;;26.30;15.40;;;;;;;;;;6296909;22;20371;-82
2024/03/02 14:07:46;;;;;;;32.38;17.45;;;;;;;;;;6295999;22;20022;-82
2024/03/02 14:10:12;;;;;;;36.35;15.63;;;;;;;;;;6267515;22;20011;-82
2024/03/02 14:12:38;;;;;;;25.45;14.85;;;;;;;;;;6294756;22;20438;-82
2024/03/02 14:15:04;;;;;;;35.13;17.30;;;;;;;;;;6318440;22;20422;-82
2024/03/02 14:17:34;;;;;;;27.63;14.38;;;;;;;;;;6317339;22;20034;-81
2024/03/02 14:20:00;;;;;;;29.05;15.38;;;;;;;;;;6292310;22;20015;-83
2024/03/02 14:22:26;;;;;;;25.50;15.55;;;;;;;;;;6251905;22;20019;-83
2024/03/02 14:24:54;;;;;;;28.60;15.18;;;;;;;;;;6300993;22;19999;-83
2024/03/02 14:27:22;;;;;;;30.02;15.57;;;;;;;;;;6304385;22;20607;-83
2024/03/02 14:29:57;;;;;;;31.45;17.58;;;;;;;;;;6332636;22;20011;-83
2024/03/02 14:32:26;;;;;;;30.52;16.52;;;;;;;;;;6282203;22;20003;-81
2024/03/02 14:35:11;;;;;;;32.97;17.08;;;;;;;;;;6301946;22;20026;-82
2024/03/02 14:37:37;;;;;;;31.52;15.25;;;;;;;;;;6332789;22;20015;-84
2024/03/02 14:40:06;;;;;;;27.85;14.75;;;;;;;;;;6305621;22;20007;-85
2024/03/02 14:42:32;;;;;;;32.88;15.98;;;;;;;;;;6248660;22;20026;-84
2024/03/02 14:47:56;;;;;;;14.07;10.68;;;;;;;;;;6191902;23;20037;-87
2024/03/02 14:50:22;;;;;;;29.08;17.00;;;;;;;;;;6242978;23;20031;-83
2024/03/02 14:52:51;;;;;;;34.42;17.38;;;;;;;;;;6240954;23;20008;-84
2024/03/02 14:55:17;;;;;;;23.95;14.50;;;;;;;;;;6214247;23;20021;-87
2024/03/02 14:57:43;;;;;;;26.67;14.65;;;;;;;;;;6211275;23;20013;-86
2024/03/02 15:00:11;;;;;;;23.35;13.50;;;;;;;;;;6236854;23;20017;-86
2024/03/02 15:02:37;;;;;;;26.75;15.98;;;;;;;;;;6211502;23;20020;-87
2024/03/02 15:05:06;;;;;;;24.15;14.73;;;;;;;;;;6217311;22;20004;-85
2024/03/02 15:07:35;;;;;;;22.45;12.27;;;;;;;;;;6302303;22;20051;-86
2024/03/02 15:10:01;;;;;;;16.45;11.10;;;;;;;;;;6277906;22;20000;-83
2024/03/02 15:12:28;;;;;;;29.58;14.32;;;;;;;;;;6276477;22;20041;-85
2024/03/02 15:14:54;;;;;;;22.35;14.15;;;;;;;;;;6269128;22;20004;-86
2024/03/02 15:17:20;;;;;;;26.75;17.40;;;;;;;;;;6229572;22;20248;-78
2024/03/02 15:19:48;;;;;;;25.25;15.15;;;;;;;;;;6247999;22;20004;-86
2024/03/02 15:22:14;;;;;;;21.45;15.35;;;;;;;;;;6247092;22;20023;-86
2024/03/02 15:24:40;;;;;;;16.45;11.07;;;;;;;;;;6271144;22;20048;-85
2024/03/02 15:27:08;;;;;;;31.17;18.25;;;;;;;;;;6271389;23;19996;-86
2024/03/02 15:32:19;;;;;;;22.75;14.20;;;;;;;;;;6247565;23;20093;-84
2024/03/02 15:34:46;;;;;;;23.23;13.35;;;;;;;;;;6241904;23;20023;-83
2024/03/02 15:37:11;;;;;;;34.15;18.15;;;;;;;;;;6240640;23;20019;-84
2024/03/02 15:39:37;;;;;;;38.85;19.13;;;;;;;;;;6216607;23;20336;-83
2024/03/02 15:42:04;;;;;;;23.08;14.15;;;;;;;;;;6266210;23;20058;-83
2024/03/02 15:44:32;;;;;;;24.45;16.23;;;;;;;;;;6251926;23;20031;-83
2024/03/02 15:46:58;;;;;;;49.70;24.90;;;;;;;;;;6212119;23;20012;-85
2024/03/02 15:49:24;;;;;;;28.85;16.55;;;;;;;;;;6238220;23;20113;-83
2024/03/02 15:51:52;;;;;;;41.55;23.02;;;;;;;;;;6210140;23;20012;-85
2024/03/02 15:54:18;;;;;;;59.92;29.13;;;;;;;;;;6221763;23;20020;-85
2024/03/02 15:56:45;;;;;;;38.95;21.52;;;;;;;;;;6267603;23;20072;-83
2024/03/02 15:59:11;;;;;;;61.22;26.05;;;;;;;;;;6267689;23;20039;-82
2024/03/02 16:01:37;;;;;;;31.85;18.85;;;;;;;;;;6243580;23;20023;-84
2024/03/02 16:04:03;;;;;;;37.95;22.05;;;;;;;;;;6268400;23;20024;-83
2024/03/02 16:06:32;;;;;;;45.92;22.80;;;;;;;;;;6271267;22;19988;-85
2024/03/02 16:08:59;;;;;;;29.08;17.98;;;;;;;;;;6242941;23;20012;-85
2024/03/02 16:11:30;;;;;;;38.00;18.23;;;;;;;;;;6243321;23;20014;-84
2024/03/02 16:13:59;;;;;;;40.65;22.50;;;;;;;;;;6228400;23;20001;-85
2024/03/02 16:16:28;;;;;;;27.42;15.30;;;;;;;;;;6220364;23;20012;-83
2024/03/02 16:18:54;;;;;;;31.60;18.10;;;;;;;;;;6219317;23;20004;-85
2024/03/02 16:21:24;;;;;;;17.15;13.00;;;;;;;;;;6244101;23;19996;-82
2024/03/02 16:23:51;;;;;;;24.75;15.02;;;;;;;;;;6218243;23;20008;-84
2024/03/02 16:26:17;;;;;;;24.27;14.85;;;;;;;;;;6270268;23;20004;-85
2024/03/02 16:28:43;;;;;;;37.65;21.00;;;;;;;;;;6243507;23;20058;-83
2024/03/02 16:31:10;;;;;;;40.25;21.00;;;;;;;;;;6224149;22;21797;-85
2024/03/02 16:33:36;;;;;;;32.25;18.58;;;;;;;;;;6244057;23;20072;-87
2024/03/02 16:36:02;;;;;;;42.42;23.42;;;;;;;;;;6168698;23;20012;-85